Time,TemperatureF,DewpointF,PressureIn,WindDirection,WindDirectionDegrees,WindSpeedMPH,WindSpeedGustMPH,Humidity,HourlyPrecipIn,Conditions,Clouds,dailyrainin,SoftwareType,DateUTC
2013-04-22 00:00:00,34.3,18.0,29.94,West,269,2.0,2.0,52,0.00,,,0.00,weatherlink.com 1.10,2013-04-22 06:00:00,
2013-04-22 00:15:00,35.7,18.0,29.93,WSW,240,3.0,7.0,48,0.00,,,0.00,weatherlink.com 1.10,2013-04-22 06:15:00,
2013-04-22 00:30:00,37.8,20.0,29.94,WNW,285,4.0,24.0,49,0.00,,,0.00,weatherlink.com 1.10,2013-04-22 06:30:00,
2013-04-22 00:45:00,36.5,21.0,29.95,WNW,287,4.0,19.0,54,0.00,,,0.00,weatherlink.com 1.10,2013-04-22 06:45:00,
2013-04-22 01:02:00,35.6,22.0,29.94,WNW,293,5.0,16.0,57,0.00,,,0.00,weatherlink.com 1.10,2013-04-22 07:02:00,
2013-04-22 01:16:00,35.1,22.0,29.94,West,260,8.0,13.0,60,0.00,,,0.00,weatherlink.com 1.10,2013-04-22 07:16:00,
2013-04-22 01:31:00,34.6,23.0,29.93,West,259,3.0,17.0,63,0.00,,,0.00,weatherlink.com 1.10,2013-04-22 07:31:00,
2013-04-22 01:46:00,34.1,23.0,29.92,West,263,5.0,11.0,65,0.00,,,0.00,weatherlink.com 1.10,2013-04-22 07:46:00,
2013-04-22 02:01:00,33.9,24.0,29.92,West,273,7.0,12.0,66,0.00,,,0.00,weatherlink.com 1.10,2013-04-22 08:01:00,
2013-04-22 02:16:00,33.9,23.0,29.90,WNW,291,3.0,11.0,65,0.00,,,0.00,weatherlink.com 1.10,2013-04-22 08:16:00,
2013-04-22 02:31:00,33.3,23.0,29.88,WSW,248,2.0,7.0,66,0.00,,,0.00,weatherlink.com 1.10,2013-04-22 08:31:00,
2013-04-22 02:46:00,32.4,23.0,29.87,WSW,257,1.0,5.0,67,0.00,,,0.00,weatherlink.com 1.10,2013-04-22 08:46:00,
2013-04-22 03:01:00,30.4,21.0,29.86,West,262,0.0,1.0,69,0.00,,,0.00,weatherlink.com 1.10,2013-04-22 09:01:00,
2013-04-22 03:16:00,29.7,22.0,29.86,West,273,0.0,3.0,72,0.00,,,0.00,weatherlink.com 1.10,2013-04-22 09:16:00,
2013-04-22 03:31:00,31.7,23.0,29.85,SW,217,1.0,9.0,69,0.00,,,0.00,weatherlink.com 1.10,2013-04-22 09:31:00,
2013-04-22 03:46:00,31.2,22.0,29.87,SSW,198,0.0,2.0,70,0.00,,,0.00,weatherlink.com 1.10,2013-04-22 09:46:00,
2013-04-22 04:01:00,34.9,21.0,29.88,West,273,4.0,9.0,58,0.00,,,0.00,weatherlink.com 1.10,2013-04-22 10:01:00,
2013-04-22 04:16:00,33.5,27.0,29.88,WNW,287,7.0,18.0,76,0.00,,,0.00,weatherlink.com 1.10,2013-04-22 10:16:00,
2013-04-22 04:31:00,32.0,27.0,29.88,SSW,212,4.0,8.0,81,0.00,,,0.00,weatherlink.com 1.10,2013-04-22 10:31:00,
2013-04-22 04:46:00,31.7,27.0,29.90,WSW,238,5.0,12.0,82,0.00,,,0.00,weatherlink.com 1.10,2013-04-22 10:46:00,
2013-04-22 05:01:00,31.2,28.0,29.89,WSW,249,1.0,5.0,86,0.00,,,0.00,weatherlink.com 1.10,2013-04-22 11:01:00,
2013-04-22 05:16:00,30.6,28.0,29.88,SE,127,0.0,1.0,89,0.00,,,0.00,weatherlink.com 1.10,2013-04-22 11:16:00,
2013-04-22 05:31:00,30.3,28.0,29.88,SSW,195,1.0,3.0,90,0.00,,,0.00,weatherlink.com 1.10,2013-04-22 11:31:00,
2013-04-22 05:46:00,30.2,28.0,29.88,SSW,207,0.0,3.0,91,0.00,,,0.00,weatherlink.com 1.10,2013-04-22 11:46:00,
2013-04-22 06:01:00,30.0,28.0,29.88,SSW,198,1.0,2.0,91,0.00,,,0.00,weatherlink.com 1.10,2013-04-22 12:01:00,
2013-04-22 06:16:00,30.0,28.0,29.88,SSW,209,0.0,1.0,91,0.00,,,0.00,weatherlink.com 1.10,2013-04-22 12:16:00,
2013-04-22 06:31:00,30.1,28.0,29.88,SE,145,0.0,1.0,92,0.00,,,0.00,weatherlink.com 1.10,2013-04-22 12:31:00,
2013-04-22 06:46:00,30.1,28.0,29.88,SSW,193,0.0,2.0,92,0.00,,,0.00,weatherlink.com 1.10,2013-04-22 12:46:00,
2013-04-22 07:01:00,30.4,28.0,29.88,SSW,193,0.0,2.0,92,0.00,,,0.00,weatherlink.com 1.10,2013-04-22 13:01:00,
2013-04-22 07:16:00,30.4,28.0,29.88,SSW,203,0.0,0.0,92,0.00,,,0.00,weatherlink.com 1.10,2013-04-22 13:16:00,
2013-04-22 07:31:00,30.5,29.0,29.88,SE,132,0.0,0.0,92,0.00,,,0.00,weatherlink.com 1.10,2013-04-22 13:31:00,
2013-04-22 07:46:00,30.7,29.0,29.88,SSW,209,1.0,2.0,92,0.00,,,0.00,weatherlink.com 1.10,2013-04-22 13:46:00,
2013-04-22 08:01:00,30.9,29.0,29.87,WNW,288,1.0,7.0,91,0.00,,,0.00,weatherlink.com 1.10,2013-04-22 14:01:00,
2013-04-22 08:16:00,31.7,29.0,29.88,SSW,192,4.0,5.0,91,0.00,,,0.00,weatherlink.com 1.10,2013-04-22 14:16:00,
2013-04-22 08:31:00,31.1,29.0,29.89,SW,235,2.0,7.0,90,0.00,,,0.00,weatherlink.com 1.10,2013-04-22 14:31:00,
2013-04-22 08:46:00,30.8,29.0,29.89,SSW,204,0.0,2.0,91,0.00,,,0.00,weatherlink.com 1.10,2013-04-22 14:46:00,
2013-04-22 09:01:00,31.4,29.0,29.88,ESE,122,0.0,1.0,91,0.00,,,0.00,weatherlink.com 1.10,2013-04-22 15:01:00,
2013-04-22 09:16:00,33.9,32.0,29.88,South,172,0.0,0.0,91,0.00,,,0.00,weatherlink.com 1.10,2013-04-22 15:16:00,
2013-04-22 09:31:00,34.6,31.0,29.87,West,265,0.0,4.0,86,0.00,,,0.00,weatherlink.com 1.10,2013-04-22 15:31:00,
2013-04-22 09:46:00,36.7,32.0,29.87,West,264,0.0,5.0,82,0.00,,,0.00,weatherlink.com 1.10,2013-04-22 15:46:00,
2013-04-22 10:01:00,37.7,30.0,29.87,WNW,301,2.0,13.0,73,0.00,,,0.00,weatherlink.com 1.10,2013-04-22 16:01:00,
2013-04-22 10:16:00,37.7,30.0,29.88,WNW,300,8.0,10.0,73,0.00,,,0.00,weatherlink.com 1.10,2013-04-22 16:16:00,
2013-04-22 10:32:00,38.3,30.0,29.87,WNW,297,1.0,8.0,72,0.00,,,0.00,weatherlink.com 1.10,2013-04-22 16:32:00,
2013-04-22 10:47:00,36.8,31.0,29.88,NE,43,1.0,8.0,80,0.00,,,0.00,weatherlink.com 1.10,2013-04-22 16:47:00,
2013-04-22 11:02:00,36.0,30.0,29.89,NE,34,2.0,9.0,79,0.03,,,0.03,weatherlink.com 1.10,2013-04-22 17:02:00,
2013-04-22 11:17:00,34.7,29.0,29.89,ENE,75,5.0,6.0,81,0.05,,,0.05,weatherlink.com 1.10,2013-04-22 17:17:00,
2013-04-22 11:32:00,33.9,30.0,29.90,SSE,148,3.0,4.0,86,0.06,,,0.06,weatherlink.com 1.10,2013-04-22 17:32:00,
2013-04-22 11:47:00,34.7,31.0,29.89,South,176,2.0,6.0,85,0.08,,,0.08,weatherlink.com 1.10,2013-04-22 17:47:00,
2013-04-22 12:02:00,32.6,28.0,29.89,ENE,67,6.0,10.0,84,0.08,,,0.11,weatherlink.com 1.10,2013-04-22 18:02:00,
2013-04-22 12:17:00,30.8,27.0,29.90,ENE,59,5.0,12.0,85,0.07,,,0.12,weatherlink.com 1.10,2013-04-22 18:17:00,
2013-04-22 12:32:00,29.2,26.0,29.91,ENE,61,7.0,12.0,86,0.07,,,0.13,weatherlink.com 1.10,2013-04-22 18:32:00,
2013-04-22 12:47:00,26.2,23.0,29.92,NE,46,2.0,13.0,88,0.06,,,0.14,weatherlink.com 1.10,2013-04-22 18:47:00,
2013-04-22 13:02:00,25.0,23.0,29.93,NNW,338,1.0,7.0,90,0.03,,,0.14,weatherlink.com 1.10,2013-04-22 19:02:00,
2013-04-22 13:17:00,23.6,21.0,29.93,ENE,72,5.0,7.0,90,0.02,,,0.14,weatherlink.com 1.10,2013-04-22 19:17:00,
2013-04-22 13:32:00,22.5,20.0,29.94,East,100,3.0,10.0,89,0.01,,,0.14,weatherlink.com 1.10,2013-04-22 19:32:00,
2013-04-22 13:47:00,21.9,19.0,29.95,ENE,72,7.0,10.0,88,0.00,,,0.14,weatherlink.com 1.10,2013-04-22 19:47:00,
2013-04-22 14:02:00,20.9,18.0,29.97,NE,48,2.0,7.0,88,0.00,,,0.14,weatherlink.com 1.10,2013-04-22 20:02:00,
2013-04-22 14:17:00,20.6,18.0,29.97,NE,47,2.0,9.0,88,0.00,,,0.14,weatherlink.com 1.10,2013-04-22 20:17:00,
2013-04-22 14:32:00,21.9,19.0,29.98,NE,51,1.0,6.0,88,0.00,,,0.14,weatherlink.com 1.10,2013-04-22 20:32:00,
2013-04-22 14:47:00,21.2,18.0,29.99,East,97,6.0,8.0,86,0.00,,,0.14,weatherlink.com 1.10,2013-04-22 20:47:00,
2013-04-22 15:02:00,20.8,17.0,30.00,East,84,5.0,8.0,86,0.00,,,0.14,weatherlink.com 1.10,2013-04-22 21:02:00,
2013-04-22 15:17:00,19.6,16.0,30.00,East,86,6.0,7.0,85,0.00,,,0.14,weatherlink.com 1.10,2013-04-22 21:17:00,
2013-04-22 15:32:00,19.2,16.0,30.00,East,98,7.0,9.0,87,0.00,,,0.14,weatherlink.com 1.10,2013-04-22 21:32:00,
2013-04-22 15:47:00,19.7,17.0,30.00,ENE,77,3.0,6.0,89,0.00,,,0.14,weatherlink.com 1.10,2013-04-22 21:47:00,
2013-04-22 16:02:00,19.3,16.0,30.01,ENE,72,6.0,10.0,85,0.00,,,0.14,weatherlink.com 1.10,2013-04-22 22:02:00,
2013-04-22 16:17:00,18.5,15.0,30.01,ENE,69,4.0,8.0,86,0.00,,,0.14,weatherlink.com 1.10,2013-04-22 22:17:00,
2013-04-22 16:32:00,17.5,14.0,30.03,ESE,117,7.0,8.0,87,0.00,,,0.14,weatherlink.com 1.10,2013-04-22 22:32:00,
2013-04-22 16:47:00,17.2,14.0,30.03,NNW,332,0.0,6.0,88,0.00,,,0.14,weatherlink.com 1.10,2013-04-22 22:47:00,
2013-04-22 17:02:00,16.4,13.0,30.04,ENE,65,4.0,7.0,87,0.00,,,0.14,weatherlink.com 1.10,2013-04-22 23:02:00,
2013-04-22 17:17:00,16.2,13.0,30.06,ENE,77,1.0,4.0,88,0.00,,,0.14,weatherlink.com 1.10,2013-04-22 23:17:00,
2013-04-22 17:32:00,15.9,13.0,30.06,ENE,68,1.0,7.0,88,0.00,,,0.14,weatherlink.com 1.10,2013-04-22 23:32:00,
2013-04-22 17:48:00,16.0,13.0,30.07,ENE,75,3.0,6.0,89,0.00,,,0.14,weatherlink.com 1.10,2013-04-22 23:48:00,
2013-04-22 18:03:00,15.9,13.0,30.07,ENE,77,5.0,7.0,89,0.00,,,0.14,weatherlink.com 1.10,2013-04-23 00:03:00,
2013-04-22 18:18:00,15.9,13.0,30.09,NE,35,1.0,2.0,89,0.00,,,0.14,weatherlink.com 1.10,2013-04-23 00:18:00,
2013-04-22 18:33:00,15.0,12.0,30.11,ENE,65,6.0,9.0,88,0.00,,,0.14,weatherlink.com 1.10,2013-04-23 00:33:00,
2013-04-22 18:48:00,14.5,12.0,30.12,ENE,60,6.0,6.0,88,0.00,,,0.14,weatherlink.com 1.10,2013-04-23 00:48:00,
2013-04-22 19:03:00,14.3,12.0,30.16,ESE,112,1.0,7.0,89,0.00,,,0.14,weatherlink.com 1.10,2013-04-23 01:03:00,
2013-04-22 19:18:00,14.0,11.0,30.14,ENE,75,6.0,7.0,88,0.00,,,0.14,weatherlink.com 1.10,2013-04-23 01:18:00,
2013-04-22 19:33:00,13.4,11.0,30.20,ESE,123,2.0,8.0,89,0.00,,,0.14,weatherlink.com 1.10,2013-04-23 01:33:00,
2013-04-22 19:48:00,13.3,11.0,30.18,ENE,64,2.0,4.0,89,0.00,,,0.14,weatherlink.com 1.10,2013-04-23 01:48:00,
2013-04-22 20:03:00,13.2,11.0,30.17,ENE,76,0.0,3.0,89,0.00,,,0.14,weatherlink.com 1.10,2013-04-23 02:03:00,
2013-04-22 20:18:00,13.0,10.0,30.21,East,92,3.0,8.0,88,0.00,,,0.14,weatherlink.com 1.10,2013-04-23 02:18:00,
2013-04-22 20:33:00,12.7,10.0,30.21,ENE,76,3.0,5.0,89,0.00,,,0.14,weatherlink.com 1.10,2013-04-23 02:33:00,
2013-04-22 20:48:00,12.6,10.0,30.22,East,81,0.0,2.0,89,0.00,,,0.14,weatherlink.com 1.10,2013-04-23 02:48:00,
2013-04-22 21:03:00,12.4,10.0,30.24,East,90,0.0,0.0,89,0.00,,,0.14,weatherlink.com 1.10,2013-04-23 03:03:00,
2013-04-22 21:18:00,12.5,10.0,30.24,ENE,74,0.0,0.0,89,0.00,,,0.14,weatherlink.com 1.10,2013-04-23 03:18:00,
2013-04-22 21:33:00,12.4,10.0,30.26,East,84,0.0,0.0,89,0.00,,,0.14,weatherlink.com 1.10,2013-04-23 03:33:00,
2013-04-22 21:48:00,12.3,10.0,30.25,East,81,0.0,0.0,89,0.00,,,0.14,weatherlink.com 1.10,2013-04-23 03:48:00,
2013-04-22 22:03:00,12.4,10.0,30.25,East,80,0.0,0.0,89,0.00,,,0.14,weatherlink.com 1.10,2013-04-23 04:03:00,
2013-04-22 22:18:00,12.5,10.0,30.25,WNW,294,0.0,0.0,89,0.00,,,0.14,weatherlink.com 1.10,2013-04-23 04:18:00,
2013-04-22 22:33:00,12.5,10.0,30.24,NNE,23,0.0,0.0,89,0.00,,,0.14,weatherlink.com 1.10,2013-04-23 04:33:00,
2013-04-22 22:48:00,12.4,10.0,30.25,ENE,74,0.0,0.0,89,0.00,,,0.14,weatherlink.com 1.10,2013-04-23 04:48:00,
2013-04-22 23:03:00,12.4,10.0,30.25,ENE,74,0.0,0.0,89,0.00,,,0.14,weatherlink.com 1.10,2013-04-23 05:03:00,
2013-04-22 23:18:00,12.4,10.0,30.24,East,94,0.0,0.0,89,0.00,,,0.14,weatherlink.com 1.10,2013-04-23 05:18:00,
2013-04-22 23:33:00,12.4,10.0,30.26,East,81,0.0,0.0,89,0.00,,,0.14,weatherlink.com 1.10,2013-04-23 05:33:00,
2013-04-22 23:48:00,12.3,10.0,30.24,East,80,0.0,0.0,89,0.00,,,0.14,weatherlink.com 1.10,2013-04-23 05:48:00,